sensor_id;sensor_type;location;lat;lon;timestamp;noise_LAeq;noise_LA_min;noise_LA_max;noise_LA01;noise_LA95
49568;Laerm;35474;51.032;6.998;2024-03-07T00:00:12;56.94;43.04;71.04;;
49568;Laerm;35474;51.032;6.998;2024-03-07T00:02:44;50.18;42.82;62.54;;
49568;Laerm;35474;51.032;6.998;2024-03-07T00:05:11;56.07;43.44;68.12;;
49568;Laerm;35474;51.032;6.998;2024-03-07T00:07:41;54.35;43.86;71.98;;
49568;Laerm;35474;51.032;6.998;2024-03-07T00:10:11;46.44;43.90;54.46;;
49568;Laerm;35474;51.032;6.998;2024-03-07T00:12:39;54.79;44.43;68.28;;
49568;Laerm;35474;51.032;6.998;2024-03-07T00:15:10;46.87;43.58;55.36;;
49568;Laerm;35474;51.032;6.998;2024-03-07T00:17:37;52.89;44.62;68.23;;
49568;Laerm;35474;51.032;6.998;2024-03-07T00:20:07;54.91;44.15;67.79;;
49568;Laerm;35474;51.032;6.998;2024-03-07T00:22:42;55.00;45.14;69.04;;
49568;Laerm;35474;51.032;6.998;2024-03-07T00:25:09;53.21;45.80;65.66;;
49568;Laerm;35474;51.032;6.998;2024-03-07T00:27:37;52.55;44.97;65.14;;
49568;Laerm;35474;51.032;6.998;2024-03-07T00:30:07;53.48;45.36;65.20;;
49568;Laerm;35474;51.032;6.998;2024-03-07T00:32:38;50.55;45.20;59.97;;
49568;Laerm;35474;51.032;6.998;2024-03-07T00:35:07;52.93;45.57;64.19;;
49568;Laerm;35474;51.032;6.998;2024-03-07T00:37:37;52.43;45.27;63.26;;
49568;Laerm;35474;51.032;6.998;2024-03-07T00:40:04;56.22;45.07;66.18;;
49568;Laerm;35474;51.032;6.998;2024-03-07T00:42:30;49.78;44.73;58.86;;
49568;Laerm;35474;51.032;6.998;2024-03-07T00:44:57;52.05;46.13;61.84;;
49568;Laerm;35474;51.032;6.998;2024-03-07T00:47:24;56.30;48.08;71.17;;
49568;Laerm;35474;51.032;6.998;2024-03-07T00:49:51;54.03;46.28;66.62;;
49568;Laerm;35474;51.032;6.998;2024-03-07T00:52:18;57.87;45.97;72.38;;
49568;Laerm;35474;51.032;6.998;2024-03-07T00:54:47;51.35;45.17;58.05;;
49568;Laerm;35474;51.032;6.998;2024-03-07T01:00:34;55.47;46.23;68.72;;
49568;Laerm;35474;51.032;6.998;2024-03-07T01:03:01;52.66;46.45;60.33;;
49568;Laerm;35474;51.032;6.998;2024-03-07T01:05:28;51.86;46.55;56.35;;
49568;Laerm;35474;51.032;6.998;2024-03-07T01:07:54;51.76;46.89;57.51;;
49568;Laerm;35474;51.032;6.998;2024-03-07T01:10:23;54.12;45.91;66.23;;
49568;Laerm;35474;51.032;6.998;2024-03-07T01:12:49;51.35;45.66;57.91;;
49568;Laerm;35474;51.032;6.998;2024-03-07T01:15:16;52.62;47.30;58.72;;
49568;Laerm;35474;51.032;6.998;2024-03-07T01:17:43;53.82;44.15;66.38;;
49568;Laerm;35474;51.032;6.998;2024-03-07T01:20:11;53.62;46.71;64.97;;
49568;Laerm;35474;51.032;6.998;2024-03-07T01:22:38;57.27;47.79;70.86;;
49568;Laerm;35474;51.032;6.998;2024-03-07T01:25:05;52.73;47.20;60.13;;
49568;Laerm;35474;51.032;6.998;2024-03-07T01:27:32;50.25;44.43;59.20;;
49568;Laerm;35474;51.032;6.998;2024-03-07T01:29:59;52.68;46.40;59.52;;
49568;Laerm;35474;51.032;6.998;2024-03-07T01:32:26;53.30;45.99;65.86;;
49568;Laerm;35474;51.032;6.998;2024-03-07T01:34:52;49.98;44.94;54.78;;
49568;Laerm;35474;51.032;6.998;2024-03-07T01:37:19;52.03;45.27;63.03;;
49568;Laerm;35474;51.032;6.998;2024-03-07T01:39:45;54.82;45.39;66.39;;
49568;Laerm;35474;51.032;6.998;2024-03-07T01:42:13;53.85;46.45;64.45;;
49568;Laerm;35474;51.032;6.998;2024-03-07T01:44:39;54.29;47.16;66.76;;
49568;Laerm;35474;51.032;6.998;2024-03-07T01:47:11;57.03;44.31;68.62;;
49568;Laerm;35474;51.032;6.998;2024-03-07T01:49:38;49.23;44.76;62.84;;
49568;Laerm;35474;51.032;6.998;2024-03-07T01:52:05;49.03;45.39;61.26;;
49568;Laerm;35474;51.032;6.998;2024-03-07T01:54:32;52.76;46.38;63.77;;
49568;Laerm;35474;51.032;6.998;2024-03-07T01:56:59;51.97;46.78;63.08;;
49568;Laerm;35474;51.032;6.998;2024-03-07T01:59:25;52.35;47.68;58.55;;
49568;Laerm;35474;51.032;6.998;2024-03-07T02:01:53;51.83;47.16;56.62;;
49568;Laerm;35474;51.032;6.998;2024-03-07T02:04:20;52.38;45.77;65.84;;
49568;Laerm;35474;51.032;6.998;2024-03-07T02:06:46;54.43;45.54;68.61;;
49568;Laerm;35474;51.032;6.998;2024-03-07T02:09:13;53.55;46.07;65.26;;
49568;Laerm;35474;51.032;6.998;2024-03-07T02:11:40;50.74;45.83;60.47;;
49568;Laerm;35474;51.032;6.998;2024-03-07T02:14:07;53.09;45.89;66.07;;
49568;Laerm;35474;51.032;6.998;2024-03-07T02:16:34;51.94;44.31;66.76;;
49568;Laerm;35474;51.032;6.998;2024-03-07T02:19:01;50.74;45.75;63.71;;
49568;Laerm;35474;51.032;6.998;2024-03-07T02:21:27;50.73;46.25;57.09;;
49568;Laerm;35474;51.032;6.998;2024-03-07T02:23:54;50.44;46.62;56.47;;
49568;Laerm;35474;51.032;6.998;2024-03-07T02:26:21;51.34;45.75;58.24;;
49568;Laerm;35474;51.032;6.998;2024-03-07T02:28:48;52.17;47.46;58.18;;
49568;Laerm;35474;51.032;6.998;2024-03-07T02:31:14;53.96;47.00;67.26;;
49568;Laerm;35474;51.032;6.998;2024-03-07T02:33:41;50.57;45.99;58.80;;
49568;Laerm;35474;51.032;6.998;2024-03-07T02:36:08;51.82;47.44;58.68;;
49568;Laerm;35474;51.032;6.998;2024-03-07T02:38:34;58.23;46.50;70.43;;
49568;Laerm;35474;51.032;6.998;2024-03-07T02:41:01;55.50;46.30;70.48;;
49568;Laerm;35474;51.032;6.998;2024-03-07T02:43:27;55.35;45.51;69.05;;
49568;Laerm;35474;51.032;6.998;2024-03-07T02:45:54;55.88;45.23;69.68;;
49568;Laerm;35474;51.032;6.998;2024-03-07T02:48:21;56.53;47.18;68.89;;
49568;Laerm;35474;51.032;6.998;2024-03-07T02:50:48;50.62;45.30;57.43;;
49568;Laerm;35474;51.032;6.998;2024-03-07T02:53:14;55.46;44.94;68.39;;
49568;Laerm;35474;51.032;6.998;2024-03-07T02:55:41;51.32;46.89;60.45;;
49568;Laerm;35474;51.032;6.998;2024-03-07T02:58:08;53.16;45.48;65.82;;
49568;Laerm;35474;51.032;6.998;2024-03-07T03:00:34;56.27;46.93;69.54;;
49568;Laerm;35474;51.032;6.998;2024-03-07T03:03:01;51.18;46.80;57.36;;
49568;Laerm;35474;51.032;6.998;2024-03-07T03:05:27;52.64;47.32;59.20;;
49568;Laerm;35474;51.032;6.998;2024-03-07T03:07:54;52.78;48.36;59.18;;
49568;Laerm;35474;51.032;6.998;2024-03-07T03:10:22;55.20;46.52;67.16;;
49568;Laerm;35474;51.032;6.998;2024-03-07T03:12:53;54.82;46.50;65.53;;
49568;Laerm;35474;51.032;6.998;2024-03-07T03:15:20;57.91;48.80;68.73;;
49568;Laerm;35474;51.032;6.998;2024-03-07T03:17:47;53.39;48.05;64.87;;
49568;Laerm;35474;51.032;6.998;2024-03-07T03:20:14;57.33;48.36;69.63;;
49568;Laerm;35474;51.032;6.998;2024-03-07T03:23:00;55.88;47.76;67.34;;
49568;Laerm;35474;51.032;6.998;2024-03-07T03:25:45;58.32;47.42;72.44;;
49568;Laerm;35474;51.032;6.998;2024-03-07T03:28:11;58.07;47.77;69.08;;
49568;Laerm;35474;51.032;6.998;2024-03-07T03:30:39;55.48;47.50;68.27;;
49568;Laerm;35474;51.032;6.998;2024-03-07T03:33:06;57.09;48.64;72.12;;
49568;Laerm;35474;51.032;6.998;2024-03-07T03:35:42;55.43;47.46;67.13;;
49568;Laerm;35474;51.032;6.998;2024-03-07T03:38:09;56.43;48.92;68.25;;
49568;Laerm;35474;51.032;6.998;2024-03-07T03:40:36;61.06;47.44;74.74;;
49568;Laerm;35474;51.032;6.998;2024-03-07T03:43:02;61.98;48.64;72.18;;
49568;Laerm;35474;51.032;6.998;2024-03-07T03:45:29;60.52;47.70;70.89;;
49568;Laerm;35474;51.032;6.998;2024-03-07T03:47:56;56.08;46.91;68.90;;
49568;Laerm;35474;51.032;6.998;2024-03-07T03:50:23;56.53;49.25;66.58;;
49568;Laerm;35474;51.032;6.998;2024-03-07T03:52:50;58.34;47.54;69.76;;
49568;Laerm;35474;51.032;6.998;2024-03-07T03:55:16;60.46;48.21;74.56;;
49568;Laerm;35474;51.032;6.998;2024-03-07T03:57:44;53.91;46.23;66.02;;
49568;Laerm;35474;51.032;6.998;2024-03-07T04:00:11;60.28;49.62;71.94;;
49568;Laerm;35474;51.032;6.998;2024-03-07T04:02:42;62.56;49.64;73.52;;
49568;Laerm;35474;51.032;6.998;2024-03-07T04:05:10;60.72;49.80;70.71;;
49568;Laerm;35474;51.032;6.998;2024-03-07T04:07:38;59.64;51.64;72.69;;
49568;Laerm;35474;51.032;6.998;2024-03-07T04:10:05;63.47;51.94;78.51;;
49568;Laerm;35474;51.032;6.998;2024-03-07T04:12:37;58.69;51.79;70.70;;
49568;Laerm;35474;51.032;6.998;2024-03-07T04:15:05;62.06;51.32;70.82;;
49568;Laerm;35474;51.032;6.998;2024-03-07T04:17:34;59.00;51.85;69.88;;
49568;Laerm;35474;51.032;6.998;2024-03-07T04:20:01;59.36;49.21;69.57;;
49568;Laerm;35474;51.032;6.998;2024-03-07T04:22:32;61.94;51.38;73.48;;
49568;Laerm;35474;51.032;6.998;2024-03-07T04:25:00;62.07;52.27;69.22;;
49568;Laerm;35474;51.032;6.998;2024-03-07T04:27:27;63.14;54.30;71.79;;
49568;Laerm;35474;51.032;6.998;2024-03-07T04:29:55;63.49;49.82;73.20;;
49568;Laerm;35474;51.032;6.998;2024-03-07T04:32:21;63.96;53.12;72.48;;
49568;Laerm;35474;51.032;6.998;2024-03-07T04:34:48;62.29;52.98;70.41;;
49568;Laerm;35474;51.032;6.998;2024-03-07T04:37:15;62.22;51.41;69.69;;
49568;Laerm;35474;51.032;6.998;2024-03-07T04:39:41;65.70;54.02;75.65;;
49568;Laerm;35474;51.032;6.998;2024-03-07T04:42:08;64.48;52.58;70.77;;
49568;Laerm;35474;51.032;6.998;2024-03-07T04:44:38;62.34;52.41;72.20;;
49568;Laerm;35474;51.032;6.998;2024-03-07T04:47:05;64.04;54.68;72.14;;
49568;Laerm;35474;51.032;6.998;2024-03-07T04:49:32;64.39;53.03;74.07;;
49568;Laerm;35474;51.032;6.998;2024-03-07T04:52:02;66.15;53.87;75.29;;
49568;Laerm;35474;51.032;6.998;2024-03-07T04:54:30;63.50;52.64;74.03;;
49568;Laerm;35474;51.032;6.998;2024-03-07T04:56:58;62.84;51.67;74.80;;
49568;Laerm;35474;51.032;6.998;2024-03-07T04:59:25;62.30;52.31;70.93;;
49568;Laerm;35474;51.032;6.998;2024-03-07T05:01:52;62.36;51.24;69.97;;
49568;Laerm;35474;51.032;6.998;2024-03-07T05:04:18;63.80;53.32;81.07;;
49568;Laerm;35474;51.032;6.998;2024-03-07T05:06:45;61.94;53.45;71.77;;
49568;Laerm;35474;51.032;6.998;2024-03-07T05:09:14;64.04;53.68;72.16;;
49568;Laerm;35474;51.032;6.998;2024-03-07T05:11:51;65.19;53.79;73.67;;
49568;Laerm;35474;51.032;6.998;2024-03-07T05:14:18;64.82;54.76;72.24;;
49568;Laerm;35474;51.032;6.998;2024-03-07T05:16:45;63.03;54.10;72.84;;
49568;Laerm;35474;51.032;6.998;2024-03-07T05:19:12;65.32;56.28;73.01;;
49568;Laerm;35474;51.032;6.998;2024-03-07T05:21:39;66.39;56.30;72.22;;
49568;Laerm;35474;51.032;6.998;2024-03-07T05:24:07;63.08;54.17;69.82;;
49568;Laerm;35474;51.032;6.998;2024-03-07T05:26:35;64.88;51.60;72.89;;
49568;Laerm;35474;51.032;6.998;2024-03-07T05:29:07;65.49;56.23;71.49;;
49568;Laerm;35474;51.032;6.998;2024-03-07T05:31:38;64.71;54.53;73.31;;
49568;Laerm;35474;51.032;6.998;2024-03-07T05:34:10;65.00;54.76;84.75;;
49568;Laerm;35474;51.032;6.998;2024-03-07T05:36:37;65.02;54.90;72.20;;
49568;Laerm;35474;51.032;6.998;2024-03-07T05:39:10;67.78;57.67;77.17;;
49568;Laerm;35474;51.032;6.998;2024-03-07T05:41:38;65.76;55.61;75.44;;
49568;Laerm;35474;51.032;6.998;2024-03-07T05:44:05;65.18;53.64;71.65;;
49568;Laerm;35474;51.032;6.998;2024-03-07T05:46:38;66.52;55.07;74.19;;
49568;Laerm;35474;51.032;6.998;2024-03-07T05:49:08;66.55;56.13;73.26;;
49568;Laerm;35474;51.032;6.998;2024-03-07T05:51:34;66.53;55.24;72.31;;
49568;Laerm;35474;51.032;6.998;2024-03-07T05:54:02;65.32;53.76;72.42;;
49568;Laerm;35474;51.032;6.998;2024-03-07T05:56:33;65.52;55.04;71.99;;
49568;Laerm;35474;51.032;6.998;2024-03-07T05:59:03;63.37;53.47;77.41;;
49568;Laerm;35474;51.032;6.998;2024-03-07T06:01:34;65.03;53.75;72.24;;
49568;Laerm;35474;51.032;6.998;2024-03-07T06:04:01;66.97;55.45;73.16;;
49568;Laerm;35474;51.032;6.998;2024-03-07T06:06:28;64.31;54.26;83.96;;
49568;Laerm;35474;51.032;6.998;2024-03-07T06:09:03;65.91;57.47;72.56;;
49568;Laerm;35474;51.032;6.998;2024-03-07T06:11:34;66.43;54.14;76.41;;
49568;Laerm;35474;51.032;6.998;2024-03-07T06:14:03;66.59;54.30;75.07;;
49568;Laerm;35474;51.032;6.998;2024-03-07T06:16:31;66.84;55.25;73.17;;
49568;Laerm;35474;51.032;6.998;2024-03-07T06:19:01;65.02;56.78;70.96;;
49568;Laerm;35474;51.032;6.998;2024-03-07T06:21:31;66.48;55.51;72.32;;
49568;Laerm;35474;51.032;6.998;2024-03-07T06:23:58;66.00;57.53;73.26;;
49568;Laerm;35474;51.032;6.998;2024-03-07T06:26:33;64.88;51.75;75.22;;
49568;Laerm;35474;51.032;6.998;2024-03-07T06:29:38;66.62;53.66;72.85;;
49568;Laerm;35474;51.032;6.998;2024-03-07T06:32:04;66.45;55.11;82.28;;
49568;Laerm;35474;51.032;6.998;2024-03-07T06:34:32;67.44;55.83;76.40;;
49568;Laerm;35474;51.032;6.998;2024-03-07T06:36:59;64.35;53.15;78.98;;
49568;Laerm;35474;51.032;6.998;2024-03-07T06:39:26;66.61;57.54;74.15;;
49568;Laerm;35474;51.032;6.998;2024-03-07T06:41:52;67.04;53.98;76.91;;
49568;Laerm;35474;51.032;6.998;2024-03-07T06:44:19;65.78;56.05;77.72;;
49568;Laerm;35474;51.032;6.998;2024-03-07T06:46:49;65.36;56.24;74.50;;
49568;Laerm;35474;51.032;6.998;2024-03-07T06:49:16;65.82;51.17;73.20;;
49568;Laerm;35474;51.032;6.998;2024-03-07T06:51:43;65.22;53.25;76.76;;
49568;Laerm;35474;51.032;6.998;2024-03-07T06:54:10;67.00;58.83;75.58;;
49568;Laerm;35474;51.032;6.998;2024-03-07T06:56:37;67.81;58.64;80.08;;
49568;Laerm;35474;51.032;6.998;2024-03-07T06:59:03;66.59;56.46;76.96;;
49568;Laerm;35474;51.032;6.998;2024-03-07T07:01:31;65.50;51.55;78.47;;
49568;Laerm;35474;51.032;6.998;2024-03-07T07:03:57;66.20;56.82;71.69;;
49568;Laerm;35474;51.032;6.998;2024-03-07T07:06:24;65.24;51.64;78.51;;
49568;Laerm;35474;51.032;6.998;2024-03-07T07:08:52;67.94;54.09;86.73;;
49568;Laerm;35474;51.032;6.998;2024-03-07T07:11:19;65.43;57.68;76.60;;
49568;Laerm;35474;51.032;6.998;2024-03-07T07:13:45;64.57;56.76;72.56;;
49568;Laerm;35474;51.032;6.998;2024-03-07T07:16:13;65.97;58.05;77.08;;
49568;Laerm;35474;51.032;6.998;2024-03-07T07:18:39;65.11;55.58;74.67;;
49568;Laerm;35474;51.032;6.998;2024-03-07T07:21:06;65.27;53.77;72.68;;
49568;Laerm;35474;51.032;6.998;2024-03-07T07:23:37;67.04;56.22;75.27;;
49568;Laerm;35474;51.032;6.998;2024-03-07T07:26:03;65.54;53.79;75.25;;
49568;Laerm;35474;51.032;6.998;2024-03-07T07:28:32;67.34;60.19;80.53;;
49568;Laerm;35474;51.032;6.998;2024-03-07T07:32:34;66.67;56.18;77.55;;
49568;Laerm;35474;51.032;6.998;2024-03-07T07:35:02;66.24;51.26;71.68;;
49568;Laerm;35474;51.032;6.998;2024-03-07T07:37:29;66.62;58.90;78.04;;
49568;Laerm;35474;51.032;6.998;2024-03-07T07:39:55;65.41;50.09;75.90;;
49568;Laerm;35474;51.032;6.998;2024-03-07T07:42:22;65.07;56.02;71.54;;
49568;Laerm;35474;51.032;6.998;2024-03-07T07:44:48;66.24;56.95;74.34;;
49568;Laerm;35474;51.032;6.998;2024-03-07T07:47:15;66.79;55.35;76.26;;
49568;Laerm;35474;51.032;6.998;2024-03-07T07:49:42;65.04;55.18;73.20;;
49568;Laerm;35474;51.032;6.998;2024-03-07T07:52:08;65.33;54.82;72.89;;
49568;Laerm;35474;51.032;6.998;2024-03-07T07:54:35;64.14;55.69;78.09;;
49568;Laerm;35474;51.032;6.998;2024-03-07T07:57:02;65.94;58.05;76.07;;
49568;Laerm;35474;51.032;6.998;2024-03-07T07:59:29;67.05;57.82;86.63;;
49568;Laerm;35474;51.032;6.998;2024-03-07T08:01:58;67.14;51.39;78.74;;
49568;Laerm;35474;51.032;6.998;2024-03-07T08:04:24;66.34;51.58;80.66;;
49568;Laerm;35474;51.032;6.998;2024-03-07T08:06:51;68.95;51.97;88.79;;
49568;Laerm;35474;51.032;6.998;2024-03-07T08:09:18;68.98;47.04;89.44;;
49568;Laerm;35474;51.032;6.998;2024-03-07T08:11:44;67.54;54.54;82.38;;
49568;Laerm;35474;51.032;6.998;2024-03-07T08:14:11;66.26;53.49;81.54;;
49568;Laerm;35474;51.032;6.998;2024-03-07T08:16:38;69.61;55.79;88.80;;
49568;Laerm;35474;51.032;6.998;2024-03-07T08:19:05;69.75;54.89;90.56;;
49568;Laerm;35474;51.032;6.998;2024-03-07T08:21:34;70.49;51.57;89.05;;
49568;Laerm;35474;51.032;6.998;2024-03-07T08:24:00;70.04;53.49;88.36;;
49568;Laerm;35474;51.032;6.998;2024-03-07T08:26:30;67.63;46.69;88.33;;
49568;Laerm;35474;51.032;6.998;2024-03-07T08:28:57;66.64;51.68;80.61;;
49568;Laerm;35474;51.032;6.998;2024-03-07T08:31:24;66.77;47.50;79.52;;
49568;Laerm;35474;51.032;6.998;2024-03-07T08:33:52;66.62;48.70;75.01;;
49568;Laerm;35474;51.032;6.998;2024-03-07T08:36:20;64.20;50.54;76.55;;
49568;Laerm;35474;51.032;6.998;2024-03-07T08:38:46;67.95;52.11;80.63;;
49568;Laerm;35474;51.032;6.998;2024-03-07T08:41:13;64.67;48.98;74.80;;
49568;Laerm;35474;51.032;6.998;2024-03-07T08:43:41;64.75;54.60;75.17;;
49568;Laerm;35474;51.032;6.998;2024-03-07T08:46:07;68.85;49.78;89.76;;
49568;Laerm;35474;51.032;6.998;2024-03-07T08:48:34;64.80;46.43;73.87;;
49568;Laerm;35474;51.032;6.998;2024-03-07T08:51:02;66.42;51.75;76.21;;
49568;Laerm;35474;51.032;6.998;2024-03-07T08:53:29;72.94;57.18;97.74;;
49568;Laerm;35474;51.032;6.998;2024-03-07T08:55:56;65.25;56.34;79.33;;
49568;Laerm;35474;51.032;6.998;2024-03-07T08:58:25;68.48;53.12;83.26;;
49568;Laerm;35474;51.032;6.998;2024-03-07T09:00:51;72.32;50.38;93.02;;
49568;Laerm;35474;51.032;6.998;2024-03-07T09:03:18;69.00;56.67;85.64;;
49568;Laerm;35474;51.032;6.998;2024-03-07T09:05:48;71.03;49.63;90.44;;
49568;Laerm;35474;51.032;6.998;2024-03-07T09:08:14;78.14;55.90;99.05;;
49568;Laerm;35474;51.032;6.998;2024-03-07T09:10:42;65.48;53.08;81.82;;
49568;Laerm;35474;51.032;6.998;2024-03-07T09:13:08;69.10;53.46;90.21;;
49568;Laerm;35474;51.032;6.998;2024-03-07T09:15:36;69.21;51.31;90.70;;
49568;Laerm;35474;51.032;6.998;2024-03-07T09:18:03;65.89;49.96;83.82;;
49568;Laerm;35474;51.032;6.998;2024-03-07T09:20:31;66.62;45.57;84.65;;
49568;Laerm;35474;51.032;6.998;2024-03-07T09:22:57;64.88;48.94;77.68;;
49568;Laerm;35474;51.032;6.998;2024-03-07T09:25:26;65.08;49.35;78.83;;
49568;Laerm;35474;51.032;6.998;2024-03-07T09:27:53;77.49;51.61;101.74;;
49568;Laerm;35474;51.032;6.998;2024-03-07T09:30:21;71.92;50.04;91.88;;
49568;Laerm;35474;51.032;6.998;2024-03-07T09:32:51;71.64;52.07;92.60;;
49568;Laerm;35474;51.032;6.998;2024-03-07T09:35:18;72.14;52.10;93.23;;
49568;Laerm;35474;51.032;6.998;2024-03-07T09:37:45;76.54;56.23;94.06;;
49568;Laerm;35474;51.032;6.998;2024-03-07T09:40:12;79.87;51.75;100.47;;
49568;Laerm;35474;51.032;6.998;2024-03-07T09:42:47;68.66;55.97;93.39;;
49568;Laerm;35474;51.032;6.998;2024-03-07T09:45:17;79.83;56.80;103.07;;
49568;Laerm;35474;51.032;6.998;2024-03-07T09:47:47;68.34;50.20;86.66;;
49568;Laerm;35474;51.032;6.998;2024-03-07T09:50:19;70.31;50.94;87.58;;
49568;Laerm;35474;51.032;6.998;2024-03-07T09:52:49;79.74;49.45;103.31;;
49568;Laerm;35474;51.032;6.998;2024-03-07T09:55:18;68.31;56.47;86.33;;
49568;Laerm;35474;51.032;6.998;2024-03-07T09:57:47;78.96;49.07;97.55;;
49568;Laerm;35474;51.032;6.998;2024-03-07T10:00:18;77.54;53.27;100.08;;
49568;Laerm;35474;51.032;6.998;2024-03-07T10:03:09;76.67;50.98;99.70;;
49568;Laerm;35474;51.032;6.998;2024-03-07T10:05:41;69.04;53.31;88.08;;
49568;Laerm;35474;51.032;6.998;2024-03-07T10:08:08;66.58;48.29;86.61;;
49568;Laerm;35474;51.032;6.998;2024-03-07T10:10:34;67.40;58.10;76.44;;
49568;Laerm;35474;51.032;6.998;2024-03-07T10:13:01;71.29;50.64;97.38;;
49568;Laerm;35474;51.032;6.998;2024-03-07T10:15:32;69.28;52.70;91.19;;
49568;Laerm;35474;51.032;6.998;2024-03-07T10:18:00;68.39;54.82;88.37;;
49568;Laerm;35474;51.032;6.998;2024-03-07T10:20:28;73.55;47.50;92.71;;
49568;Laerm;35474;51.032;6.998;2024-03-07T10:22:55;70.74;51.09;88.97;;
49568;Laerm;35474;51.032;6.998;2024-03-07T10:25:23;70.05;50.33;86.35;;
49568;Laerm;35474;51.032;6.998;2024-03-07T10:27:52;68.09;47.57;85.67;;
49568;Laerm;35474;51.032;6.998;2024-03-07T10:30:19;65.34;51.48;79.97;;
49568;Laerm;35474;51.032;6.998;2024-03-07T10:32:55;67.02;55.05;88.58;;
49568;Laerm;35474;51.032;6.998;2024-03-07T10:35:24;68.94;49.41;84.37;;
49568;Laerm;35474;51.032;6.998;2024-03-07T10:37:52;67.52;51.57;78.52;;
49568;Laerm;35474;51.032;6.998;2024-03-07T10:40:21;68.53;57.05;86.36;;
49568;Laerm;35474;51.032;6.998;2024-03-07T10:42:49;69.49;51.71;91.51;;
49568;Laerm;35474;51.032;6.998;2024-03-07T10:45:19;68.14;56.16;88.28;;
49568;Laerm;35474;51.032;6.998;2024-03-07T10:47:54;67.35;56.66;87.92;;
49568;Laerm;35474;51.032;6.998;2024-03-07T10:53:44;66.04;49.40;73.55;;
49568;Laerm;35474;51.032;6.998;2024-03-07T10:56:21;65.56;56.81;79.06;;
49568;Laerm;35474;51.032;6.998;2024-03-07T10:58:58;65.17;51.36;77.58;;
49568;Laerm;35474;51.032;6.998;2024-03-07T11:01:31;63.94;49.02;74.04;;
49568;Laerm;35474;51.032;6.998;2024-03-07T11:04:01;70.55;53.93;93.12;;
49568;Laerm;35474;51.032;6.998;2024-03-07T11:06:34;67.11;54.54;85.27;;
49568;Laerm;35474;51.032;6.998;2024-03-07T11:09:02;66.65;47.81;78.78;;
49568;Laerm;35474;51.032;6.998;2024-03-07T11:11:41;65.79;55.24;76.54;;
49568;Laerm;35474;51.032;6.998;2024-03-07T11:14:10;65.98;47.84;86.40;;
49568;Laerm;35474;51.032;6.998;2024-03-07T11:16:41;67.64;49.62;87.26;;
49568;Laerm;35474;51.032;6.998;2024-03-07T11:19:18;68.74;50.95;83.23;;
49568;Laerm;35474;51.032;6.998;2024-03-07T11:21:49;71.00;48.92;89.95;;
49568;Laerm;35474;51.032;6.998;2024-03-07T11:24:30;66.58;53.22;81.34;;
49568;Laerm;35474;51.032;6.998;2024-03-07T11:27:02;71.01;52.08;93.42;;
49568;Laerm;35474;51.032;6.998;2024-03-07T11:29:38;67.16;51.32;88.44;;
49568;Laerm;35474;51.032;6.998;2024-03-07T11:32:12;75.18;56.08;95.82;;
49568;Laerm;35474;51.032;6.998;2024-03-07T11:34:42;65.07;48.76;78.04;;
49568;Laerm;35474;51.032;6.998;2024-03-07T11:37:09;67.86;51.56;87.06;;
49568;Laerm;35474;51.032;6.998;2024-03-07T11:39:47;68.58;57.83;86.85;;
49568;Laerm;35474;51.032;6.998;2024-03-07T11:42:27;71.69;50.94;95.01;;
49568;Laerm;35474;51.032;6.998;2024-03-07T11:44:55;67.79;54.69;88.45;;
49568;Laerm;35474;51.032;6.998;2024-03-07T11:47:24;65.64;54.64;78.77;;
49568;Laerm;35474;51.032;6.998;2024-03-07T11:49:51;77.88;54.16;102.90;;
49568;Laerm;35474;51.032;6.998;2024-03-07T11:52:19;67.09;50.77;85.73;;
49568;Laerm;35474;51.032;6.998;2024-03-07T11:54:46;65.47;55.53;80.54;;
49568;Laerm;35474;51.032;6.998;2024-03-07T11:57:14;65.39;56.75;78.37;;
49568;Laerm;35474;51.032;6.998;2024-03-07T11:59:43;68.44;52.36;85.76;;
49568;Laerm;35474;51.032;6.998;2024-03-07T12:02:13;66.65;52.06;80.65;;
49568;Laerm;35474;51.032;6.998;2024-03-07T12:04:44;66.77;49.45;85.38;;
49568;Laerm;35474;51.032;6.998;2024-03-07T12:07:11;64.91;47.14;77.54;;
49568;Laerm;35474;51.032;6.998;2024-03-07T12:09:39;65.36;51.60;79.23;;
49568;Laerm;35474;51.032;6.998;2024-03-07T12:12:09;65.88;53.20;82.63;;
49568;Laerm;35474;51.032;6.998;2024-03-07T12:14:36;65.67;52.45;76.19;;
49568;Laerm;35474;51.032;6.998;2024-03-07T12:17:04;72.81;51.71;92.77;;
49568;Laerm;35474;51.032;6.998;2024-03-07T12:19:32;67.15;51.47;81.34;;
49568;Laerm;35474;51.032;6.998;2024-03-07T12:22:00;65.51;47.50;77.97;;
49568;Laerm;35474;51.032;6.998;2024-03-07T12:24:29;66.81;49.25;82.54;;
49568;Laerm;35474;51.032;6.998;2024-03-07T12:27:15;67.32;53.11;86.03;;
49568;Laerm;35474;51.032;6.998;2024-03-07T12:29:42;67.55;48.13;88.52;;
49568;Laerm;35474;51.032;6.998;2024-03-07T12:32:12;70.46;51.08;88.98;;
49568;Laerm;35474;51.032;6.998;2024-03-07T12:34:40;67.49;53.98;86.11;;
49568;Laerm;35474;51.032;6.998;2024-03-07T12:37:12;70.01;50.57;85.97;;
49568;Laerm;35474;51.032;6.998;2024-03-07T12:39:44;69.29;54.31;88.49;;
49568;Laerm;35474;51.032;6.998;2024-03-07T12:42:15;64.92;52.41;81.52;;
49568;Laerm;35474;51.032;6.998;2024-03-07T12:44:46;66.90;56.26;87.97;;
49568;Laerm;35474;51.032;6.998;2024-03-07T12:47:14;69.37;53.83;90.44;;
49568;Laerm;35474;51.032;6.998;2024-03-07T12:49:44;71.37;50.85;90.57;;
49568;Laerm;35474;51.032;6.998;2024-03-07T12:52:13;67.24;50.66;81.88;;
49568;Laerm;35474;51.032;6.998;2024-03-07T12:54:41;73.11;52.56;96.05;;
49568;Laerm;35474;51.032;6.998;2024-03-07T12:57:12;67.89;57.39;84.87;;
49568;Laerm;35474;51.032;6.998;2024-03-07T12:59:39;65.35;57.31;82.24;;
49568;Laerm;35474;51.032;6.998;2024-03-07T13:02:10;64.49;53.35;76.38;;
49568;Laerm;35474;51.032;6.998;2024-03-07T13:04:37;64.60;48.81;83.64;;
49568;Laerm;35474;51.032;6.998;2024-03-07T13:07:06;70.46;52.97;94.27;;
49568;Laerm;35474;51.032;6.998;2024-03-07T13:09:34;73.37;54.40;93.49;;
49568;Laerm;35474;51.032;6.998;2024-03-07T13:12:01;76.78;55.36;95.80;;
49568;Laerm;35474;51.032;6.998;2024-03-07T13:14:31;67.73;55.64;85.36;;
49568;Laerm;35474;51.032;6.998;2024-03-07T13:17:05;68.68;59.26;82.36;;
49568;Laerm;35474;51.032;6.998;2024-03-07T13:19:32;68.45;53.22;84.68;;
49568;Laerm;35474;51.032;6.998;2024-03-07T13:21:59;68.32;51.73;84.21;;
49568;Laerm;35474;51.032;6.998;2024-03-07T13:24:28;68.29;57.54;96.33;;
49568;Laerm;35474;51.032;6.998;2024-03-07T13:26:54;70.40;51.45;90.49;;
49568;Laerm;35474;51.032;6.998;2024-03-07T13:29:21;67.82;52.08;94.73;;
49568;Laerm;35474;51.032;6.998;2024-03-07T13:31:52;71.03;53.45;87.97;;
49568;Laerm;35474;51.032;6.998;2024-03-07T13:34:19;71.09;53.41;90.54;;
49568;Laerm;35474;51.032;6.998;2024-03-07T13:36:45;68.82;53.57;86.25;;
49568;Laerm;35474;51.032;6.998;2024-03-07T13:39:12;66.12;53.74;76.99;;
49568;Laerm;35474;51.032;6.998;2024-03-07T13:41:41;69.82;51.63;87.33;;
49568;Laerm;35474;51.032;6.998;2024-03-07T13:44:08;67.45;51.75;85.53;;
49568;Laerm;35474;51.032;6.998;2024-03-07T13:46:35;70.73;52.71;94.42;;
49568;Laerm;35474;51.032;6.998;2024-03-07T13:49:02;69.34;58.13;88.89;;
49568;Laerm;35474;51.032;6.998;2024-03-07T13:51:43;67.59;56.92;82.43;;
49568;Laerm;35474;51.032;6.998;2024-03-07T13:54:26;67.75;55.04;89.44;;
49568;Laerm;35474;51.032;6.998;2024-03-07T13:57:46;68.04;57.44;86.67;;
49568;Laerm;35474;51.032;6.998;2024-03-07T14:00:47;68.44;48.60;89.94;;